Terminal Aerodrome Forecast
Issued by NWS

Home | Current Version | Previous Version | Text Only | Print | Product List | Glossary On
Versions: 1 2 3 4 5 6 7 8 9 10 11 12 13 14 15 16 17 18 19 20 21 22 23
000
FTUS43 KSGF 031700
TAFJLN
TAF
KJLN 031720Z 0318/0418 21017G25KT P6SM OVC015
     FM032200 24012KT P6SM OVC025
     FM040100 33006G15KT P6SM OVC015
     FM040400 35010KT 4SM -RA BR OVC015
     FM040700 01012KT 4SM -FZRASNPL BR OVC007
     FM041200 02009KT 1SM -SN OVC015=

USA.gov is the U.S. government's official web portal to all federal, state and local government web resources and services.